sensor_id;sensor_type;location;lat;lon;timestamp;P1;durP1;ratioP1;P2;durP2;ratioP2
22650;SDS011;11492;42.646;23.400;2024-01-06T00:01:50;36.72;;;14.35;;
22650;SDS011;11492;42.646;23.400;2024-01-06T00:04:16;37.60;;;14.45;;
22650;SDS011;11492;42.646;23.400;2024-01-06T00:06:42;34.17;;;12.98;;
22650;SDS011;11492;42.646;23.400;2024-01-06T00:09:08;31.25;;;12.95;;
22650;SDS011;11492;42.646;23.400;2024-01-06T00:11:34;38.90;;;14.70;;
22650;SDS011;11492;42.646;23.400;2024-01-06T00:14:00;37.00;;;15.57;;
22650;SDS011;11492;42.646;23.400;2024-01-06T00:16:26;43.38;;;16.23;;
22650;SDS011;11492;42.646;23.400;2024-01-06T00:18:52;47.63;;;17.38;;
22650;SDS011;11492;42.646;23.400;2024-01-06T00:21:17;53.70;;;18.98;;
22650;SDS011;11492;42.646;23.400;2024-01-06T00:23:43;55.10;;;21.27;;
22650;SDS011;11492;42.646;23.400;2024-01-06T00:26:09;67.78;;;26.27;;
22650;SDS011;11492;42.646;23.400;2024-01-06T00:28:35;66.60;;;27.95;;
22650;SDS011;11492;42.646;23.400;2024-01-06T00:31:05;78.88;;;32.15;;
22650;SDS011;11492;42.646;23.400;2024-01-06T00:33:31;84.97;;;33.25;;
22650;SDS011;11492;42.646;23.400;2024-01-06T00:35:57;83.97;;;34.13;;
22650;SDS011;11492;42.646;23.400;2024-01-06T00:38:23;85.68;;;34.25;;
22650;SDS011;11492;42.646;23.400;2024-01-06T00:40:49;84.55;;;34.67;;
22650;SDS011;11492;42.646;23.400;2024-01-06T00:43:15;67.25;;;30.20;;
22650;SDS011;11492;42.646;23.400;2024-01-06T00:45:40;81.10;;;34.13;;
22650;SDS011;11492;42.646;23.400;2024-01-06T00:48:06;69.65;;;28.27;;
22650;SDS011;11492;42.646;23.400;2024-01-06T00:50:32;64.22;;;25.88;;
22650;SDS011;11492;42.646;23.400;2024-01-06T00:52:58;69.55;;;26.80;;
22650;SDS011;11492;42.646;23.400;2024-01-06T00:55:24;55.33;;;26.50;;
22650;SDS011;11492;42.646;23.400;2024-01-06T00:57:50;62.88;;;24.67;;
22650;SDS011;11492;42.646;23.400;2024-01-06T01:00:16;61.55;;;24.27;;
22650;SDS011;11492;42.646;23.400;2024-01-06T01:02:42;58.08;;;24.55;;
22650;SDS011;11492;42.646;23.400;2024-01-06T01:05:08;62.95;;;24.55;;
22650;SDS011;11492;42.646;23.400;2024-01-06T01:07:35;63.45;;;23.40;;
22650;SDS011;11492;42.646;23.400;2024-01-06T01:10:01;52.55;;;22.08;;
22650;SDS011;11492;42.646;23.400;2024-01-06T01:12:27;51.42;;;22.30;;
22650;SDS011;11492;42.646;23.400;2024-01-06T01:14:52;56.42;;;22.60;;
22650;SDS011;11492;42.646;23.400;2024-01-06T01:17:19;52.28;;;23.38;;
22650;SDS011;11492;42.646;23.400;2024-01-06T01:19:45;60.15;;;22.05;;
22650;SDS011;11492;42.646;23.400;2024-01-06T01:22:11;28.08;;;11.18;;
22650;SDS011;11492;42.646;23.400;2024-01-06T01:24:38;38.95;;;14.10;;
22650;SDS011;11492;42.646;23.400;2024-01-06T01:27:03;34.42;;;13.30;;
22650;SDS011;11492;42.646;23.400;2024-01-06T01:29:30;30.10;;;10.70;;
22650;SDS011;11492;42.646;23.400;2024-01-06T01:31:56;26.38;;;8.82;;
22650;SDS011;11492;42.646;23.400;2024-01-06T01:34:22;21.38;;;8.88;;
22650;SDS011;11492;42.646;23.400;2024-01-06T01:36:47;32.05;;;10.90;;
22650;SDS011;11492;42.646;23.400;2024-01-06T01:39:13;26.88;;;10.73;;
22650;SDS011;11492;42.646;23.400;2024-01-06T01:41:39;26.33;;;9.20;;
22650;SDS011;11492;42.646;23.400;2024-01-06T01:44:05;18.02;;;8.52;;
22650;SDS011;11492;42.646;23.400;2024-01-06T01:46:33;17.58;;;8.15;;
22650;SDS011;11492;42.646;23.400;2024-01-06T01:49:00;15.65;;;7.05;;
22650;SDS011;11492;42.646;23.400;2024-01-06T01:51:35;14.35;;;7.00;;
22650;SDS011;11492;42.646;23.400;2024-01-06T01:54:02;20.00;;;8.27;;
22650;SDS011;11492;42.646;23.400;2024-01-06T01:56:31;14.73;;;7.97;;
22650;SDS011;11492;42.646;23.400;2024-01-06T01:59:05;17.25;;;7.95;;
22650;SDS011;11492;42.646;23.400;2024-01-06T02:01:34;20.50;;;7.22;;
22650;SDS011;11492;42.646;23.400;2024-01-06T02:04:00;20.98;;;8.70;;
22650;SDS011;11492;42.646;23.400;2024-01-06T02:06:26;23.30;;;8.75;;
22650;SDS011;11492;42.646;23.400;2024-01-06T02:08:53;15.73;;;8.18;;
22650;SDS011;11492;42.646;23.400;2024-01-06T02:11:19;22.65;;;10.63;;
22650;SDS011;11492;42.646;23.400;2024-01-06T02:13:45;49.10;;;21.83;;
22650;SDS011;11492;42.646;23.400;2024-01-06T02:16:10;63.50;;;27.80;;
22650;SDS011;11492;42.646;23.400;2024-01-06T02:18:36;70.20;;;30.70;;
22650;SDS011;11492;42.646;23.400;2024-01-06T02:21:02;75.43;;;33.30;;
22650;SDS011;11492;42.646;23.400;2024-01-06T02:23:28;84.60;;;39.75;;
22650;SDS011;11492;42.646;23.400;2024-01-06T02:25:55;94.25;;;42.33;;
22650;SDS011;11492;42.646;23.400;2024-01-06T02:28:21;99.43;;;44.72;;
22650;SDS011;11492;42.646;23.400;2024-01-06T02:30:47;68.90;;;30.85;;
22650;SDS011;11492;42.646;23.400;2024-01-06T02:33:15;67.85;;;30.65;;
22650;SDS011;11492;42.646;23.400;2024-01-06T02:35:40;60.80;;;24.92;;
22650;SDS011;11492;42.646;23.400;2024-01-06T02:38:06;40.90;;;19.25;;
22650;SDS011;11492;42.646;23.400;2024-01-06T02:40:33;37.28;;;18.77;;
22650;SDS011;11492;42.646;23.400;2024-01-06T02:42:59;38.28;;;17.73;;
22650;SDS011;11492;42.646;23.400;2024-01-06T02:45:25;61.75;;;28.83;;
22650;SDS011;11492;42.646;23.400;2024-01-06T02:47:51;74.90;;;32.90;;
22650;SDS011;11492;42.646;23.400;2024-01-06T02:50:17;76.38;;;31.33;;
22650;SDS011;11492;42.646;23.400;2024-01-06T02:52:46;67.03;;;29.23;;
22650;SDS011;11492;42.646;23.400;2024-01-06T02:55:12;59.90;;;26.80;;
22650;SDS011;11492;42.646;23.400;2024-01-06T02:57:38;70.00;;;26.52;;
22650;SDS011;11492;42.646;23.400;2024-01-06T03:00:06;60.83;;;26.60;;
22650;SDS011;11492;42.646;23.400;2024-01-06T03:02:33;73.03;;;27.60;;
22650;SDS011;11492;42.646;23.400;2024-01-06T03:04:58;73.40;;;30.60;;
22650;SDS011;11492;42.646;23.400;2024-01-06T03:07:24;67.20;;;30.08;;
22650;SDS011;11492;42.646;23.400;2024-01-06T03:09:50;69.43;;;29.52;;
22650;SDS011;11492;42.646;23.400;2024-01-06T03:12:16;68.70;;;28.90;;
22650;SDS011;11492;42.646;23.400;2024-01-06T03:14:41;70.43;;;29.90;;
22650;SDS011;11492;42.646;23.400;2024-01-06T03:17:07;73.78;;;29.77;;
22650;SDS011;11492;42.646;23.400;2024-01-06T03:19:36;62.53;;;27.92;;
22650;SDS011;11492;42.646;23.400;2024-01-06T03:22:02;53.55;;;23.52;;
22650;SDS011;11492;42.646;23.400;2024-01-06T03:24:28;48.97;;;20.80;;
22650;SDS011;11492;42.646;23.400;2024-01-06T03:26:53;40.78;;;18.92;;
22650;SDS011;11492;42.646;23.400;2024-01-06T03:29:19;27.90;;;12.73;;
22650;SDS011;11492;42.646;23.400;2024-01-06T03:31:45;30.05;;;11.30;;
22650;SDS011;11492;42.646;23.400;2024-01-06T03:34:12;23.95;;;9.70;;
22650;SDS011;11492;42.646;23.400;2024-01-06T03:36:38;21.65;;;8.55;;
22650;SDS011;11492;42.646;23.400;2024-01-06T03:39:04;22.45;;;8.75;;
22650;SDS011;11492;42.646;23.400;2024-01-06T03:41:30;19.08;;;8.38;;
22650;SDS011;11492;42.646;23.400;2024-01-06T03:43:56;16.33;;;8.00;;
22650;SDS011;11492;42.646;23.400;2024-01-06T03:46:23;21.50;;;8.75;;
22650;SDS011;11492;42.646;23.400;2024-01-06T03:48:49;17.27;;;8.13;;
22650;SDS011;11492;42.646;23.400;2024-01-06T03:51:14;17.92;;;7.72;;
22650;SDS011;11492;42.646;23.400;2024-01-06T03:53:41;19.42;;;7.95;;
22650;SDS011;11492;42.646;23.400;2024-01-06T03:56:07;16.70;;;8.15;;
22650;SDS011;11492;42.646;23.400;2024-01-06T03:58:33;16.80;;;8.63;;
22650;SDS011;11492;42.646;23.400;2024-01-06T04:00:59;20.60;;;8.05;;
22650;SDS011;11492;42.646;23.400;2024-01-06T04:03:25;17.13;;;6.80;;
22650;SDS011;11492;42.646;23.400;2024-01-06T04:05:50;14.68;;;6.88;;
22650;SDS011;11492;42.646;23.400;2024-01-06T04:08:16;14.65;;;7.57;;
22650;SDS011;11492;42.646;23.400;2024-01-06T04:10:43;15.18;;;8.13;;
22650;SDS011;11492;42.646;23.400;2024-01-06T04:13:10;15.27;;;7.95;;
22650;SDS011;11492;42.646;23.400;2024-01-06T04:15:36;18.42;;;7.90;;
22650;SDS011;11492;42.646;23.400;2024-01-06T04:18:03;17.23;;;8.57;;
22650;SDS011;11492;42.646;23.400;2024-01-06T04:20:30;22.95;;;8.57;;
22650;SDS011;11492;42.646;23.400;2024-01-06T04:22:56;21.48;;;8.57;;
22650;SDS011;11492;42.646;23.400;2024-01-06T04:25:22;19.52;;;9.73;;
22650;SDS011;11492;42.646;23.400;2024-01-06T04:27:48;16.58;;;8.52;;
22650;SDS011;11492;42.646;23.400;2024-01-06T04:30:15;20.50;;;9.13;;
22650;SDS011;11492;42.646;23.400;2024-01-06T04:32:41;17.98;;;10.15;;
22650;SDS011;11492;42.646;23.400;2024-01-06T04:35:07;26.23;;;11.23;;
22650;SDS011;11492;42.646;23.400;2024-01-06T04:37:33;26.35;;;12.30;;
22650;SDS011;11492;42.646;23.400;2024-01-06T04:39:59;30.50;;;14.10;;
22650;SDS011;11492;42.646;23.400;2024-01-06T04:42:26;31.52;;;14.25;;
22650;SDS011;11492;42.646;23.400;2024-01-06T04:44:51;29.77;;;13.15;;
22650;SDS011;11492;42.646;23.400;2024-01-06T04:47:17;30.42;;;13.85;;
22650;SDS011;11492;42.646;23.400;2024-01-06T04:49:44;32.90;;;14.90;;
22650;SDS011;11492;42.646;23.400;2024-01-06T04:52:10;25.52;;;12.52;;
22650;SDS011;11492;42.646;23.400;2024-01-06T04:54:36;29.95;;;13.23;;
22650;SDS011;11492;42.646;23.400;2024-01-06T04:57:02;28.35;;;12.93;;
22650;SDS011;11492;42.646;23.400;2024-01-06T04:59:29;29.55;;;13.43;;
22650;SDS011;11492;42.646;23.400;2024-01-06T05:01:55;24.52;;;12.20;;
22650;SDS011;11492;42.646;23.400;2024-01-06T05:04:22;28.83;;;13.32;;
22650;SDS011;11492;42.646;23.400;2024-01-06T05:06:48;21.25;;;11.63;;
22650;SDS011;11492;42.646;23.400;2024-01-06T05:09:15;21.95;;;10.95;;
22650;SDS011;11492;42.646;23.400;2024-01-06T05:11:43;25.63;;;11.38;;
22650;SDS011;11492;42.646;23.400;2024-01-06T05:14:09;24.15;;;10.88;;
22650;SDS011;11492;42.646;23.400;2024-01-06T05:16:35;20.70;;;10.07;;
22650;SDS011;11492;42.646;23.400;2024-01-06T05:19:01;22.67;;;9.55;;
22650;SDS011;11492;42.646;23.400;2024-01-06T05:21:27;19.05;;;9.63;;
22650;SDS011;11492;42.646;23.400;2024-01-06T05:23:54;22.83;;;9.82;;
22650;SDS011;11492;42.646;23.400;2024-01-06T05:26:19;34.72;;;11.40;;
22650;SDS011;11492;42.646;23.400;2024-01-06T05:28:45;21.08;;;8.63;;
22650;SDS011;11492;42.646;23.400;2024-01-06T05:31:11;24.67;;;9.35;;
22650;SDS011;11492;42.646;23.400;2024-01-06T05:33:37;20.10;;;7.80;;
22650;SDS011;11492;42.646;23.400;2024-01-06T05:36:04;22.90;;;9.10;;
22650;SDS011;11492;42.646;23.400;2024-01-06T05:38:31;27.38;;;8.00;;
22650;SDS011;11492;42.646;23.400;2024-01-06T05:40:56;21.10;;;9.20;;
22650;SDS011;11492;42.646;23.400;2024-01-06T05:43:22;25.38;;;9.05;;
22650;SDS011;11492;42.646;23.400;2024-01-06T05:45:48;23.88;;;8.55;;
22650;SDS011;11492;42.646;23.400;2024-01-06T05:48:14;20.40;;;8.23;;
22650;SDS011;11492;42.646;23.400;2024-01-06T05:50:40;18.13;;;7.75;;
22650;SDS011;11492;42.646;23.400;2024-01-06T05:53:06;20.50;;;9.52;;
22650;SDS011;11492;42.646;23.400;2024-01-06T05:55:32;24.80;;;9.38;;
22650;SDS011;11492;42.646;23.400;2024-01-06T05:57:58;22.40;;;8.93;;
22650;SDS011;11492;42.646;23.400;2024-01-06T06:00:24;20.05;;;8.77;;
22650;SDS011;11492;42.646;23.400;2024-01-06T06:02:50;23.33;;;8.02;;
22650;SDS011;11492;42.646;23.400;2024-01-06T06:05:16;21.30;;;7.65;;
22650;SDS011;11492;42.646;23.400;2024-01-06T06:07:41;21.48;;;8.02;;
22650;SDS011;11492;42.646;23.400;2024-01-06T06:10:09;25.33;;;8.77;;
22650;SDS011;11492;42.646;23.400;2024-01-06T06:12:36;21.35;;;8.43;;
22650;SDS011;11492;42.646;23.400;2024-01-06T06:15:03;18.67;;;7.80;;
22650;SDS011;11492;42.646;23.400;2024-01-06T06:17:29;24.80;;;8.00;;
22650;SDS011;11492;42.646;23.400;2024-01-06T06:19:57;15.73;;;8.20;;
22650;SDS011;11492;42.646;23.400;2024-01-06T06:22:23;19.98;;;8.02;;
22650;SDS011;11492;42.646;23.400;2024-01-06T06:24:49;19.83;;;8.10;;
22650;SDS011;11492;42.646;23.400;2024-01-06T06:27:14;24.65;;;9.20;;
22650;SDS011;11492;42.646;23.400;2024-01-06T06:29:40;29.17;;;8.95;;
22650;SDS011;11492;42.646;23.400;2024-01-06T06:32:06;19.13;;;8.27;;
22650;SDS011;11492;42.646;23.400;2024-01-06T06:34:33;17.05;;;8.63;;
22650;SDS011;11492;42.646;23.400;2024-01-06T06:36:58;17.38;;;8.75;;
22650;SDS011;11492;42.646;23.400;2024-01-06T06:39:24;25.88;;;9.13;;
22650;SDS011;11492;42.646;23.400;2024-01-06T06:41:50;25.15;;;9.65;;
22650;SDS011;11492;42.646;23.400;2024-01-06T06:44:15;22.52;;;9.63;;
22650;SDS011;11492;42.646;23.400;2024-01-06T06:46:41;19.92;;;9.52;;
22650;SDS011;11492;42.646;23.400;2024-01-06T06:49:07;19.25;;;7.97;;
22650;SDS011;11492;42.646;23.400;2024-01-06T06:51:32;17.98;;;9.32;;
22650;SDS011;11492;42.646;23.400;2024-01-06T06:53:58;18.67;;;8.07;;
22650;SDS011;11492;42.646;23.400;2024-01-06T06:56:23;18.85;;;7.90;;
22650;SDS011;11492;42.646;23.400;2024-01-06T06:58:49;18.77;;;8.90;;
22650;SDS011;11492;42.646;23.400;2024-01-06T07:01:15;22.23;;;10.10;;
22650;SDS011;11492;42.646;23.400;2024-01-06T07:03:41;25.75;;;10.13;;
22650;SDS011;11492;42.646;23.400;2024-01-06T07:06:06;22.75;;;9.30;;
22650;SDS011;11492;42.646;23.400;2024-01-06T07:08:32;19.60;;;8.95;;
22650;SDS011;11492;42.646;23.400;2024-01-06T07:10:57;23.48;;;9.10;;
22650;SDS011;11492;42.646;23.400;2024-01-06T07:13:23;20.90;;;9.25;;
22650;SDS011;11492;42.646;23.400;2024-01-06T07:15:48;13.60;;;6.65;;
22650;SDS011;11492;42.646;23.400;2024-01-06T07:18:14;16.25;;;6.82;;
22650;SDS011;11492;42.646;23.400;2024-01-06T07:20:39;13.02;;;6.32;;
22650;SDS011;11492;42.646;23.400;2024-01-06T07:23:05;16.98;;;6.63;;
22650;SDS011;11492;42.646;23.400;2024-01-06T07:25:30;18.38;;;7.25;;
22650;SDS011;11492;42.646;23.400;2024-01-06T07:27:56;13.85;;;6.82;;
22650;SDS011;11492;42.646;23.400;2024-01-06T07:30:22;24.42;;;9.10;;
22650;SDS011;11492;42.646;23.400;2024-01-06T07:32:48;13.23;;;6.43;;
22650;SDS011;11492;42.646;23.400;2024-01-06T07:35:15;17.13;;;6.45;;
22650;SDS011;11492;42.646;23.400;2024-01-06T07:37:41;12.30;;;5.50;;
22650;SDS011;11492;42.646;23.400;2024-01-06T07:40:07;14.43;;;6.75;;
22650;SDS011;11492;42.646;23.400;2024-01-06T07:42:33;15.82;;;5.78;;
22650;SDS011;11492;42.646;23.400;2024-01-06T07:44:58;10.85;;;5.10;;
22650;SDS011;11492;42.646;23.400;2024-01-06T07:47:24;16.00;;;5.55;;
22650;SDS011;11492;42.646;23.400;2024-01-06T07:49:49;16.52;;;5.55;;
22650;SDS011;11492;42.646;23.400;2024-01-06T07:52:16;19.13;;;6.03;;
22650;SDS011;11492;42.646;23.400;2024-01-06T07:54:42;13.90;;;5.60;;
22650;SDS011;11492;42.646;23.400;2024-01-06T07:57:07;19.45;;;5.57;;
22650;SDS011;11492;42.646;23.400;2024-01-06T07:59:33;18.52;;;5.70;;
22650;SDS011;11492;42.646;23.400;2024-01-06T08:01:58;12.32;;;5.60;;
22650;SDS011;11492;42.646;23.400;2024-01-06T08:04:24;20.80;;;4.97;;
22650;SDS011;11492;42.646;23.400;2024-01-06T08:06:49;16.23;;;5.30;;
22650;SDS011;11492;42.646;23.400;2024-01-06T08:09:15;11.85;;;5.15;;
22650;SDS011;11492;42.646;23.400;2024-01-06T08:11:40;16.02;;;5.00;;
22650;SDS011;11492;42.646;23.400;2024-01-06T08:14:07;13.27;;;5.13;;
22650;SDS011;11492;42.646;23.400;2024-01-06T08:16:33;9.82;;;4.65;;
22650;SDS011;11492;42.646;23.400;2024-01-06T08:18:59;13.63;;;5.13;;
22650;SDS011;11492;42.646;23.400;2024-01-06T08:21:24;16.48;;;5.32;;
22650;SDS011;11492;42.646;23.400;2024-01-06T08:23:50;13.00;;;5.00;;
22650;SDS011;11492;42.646;23.400;2024-01-06T08:26:16;13.90;;;5.38;;
22650;SDS011;11492;42.646;23.400;2024-01-06T08:28:41;17.63;;;6.35;;
22650;SDS011;11492;42.646;23.400;2024-01-06T08:31:07;20.63;;;6.50;;
22650;SDS011;11492;42.646;23.400;2024-01-06T08:33:32;16.65;;;6.78;;
22650;SDS011;11492;42.646;23.400;2024-01-06T08:35:58;14.50;;;6.72;;
22650;SDS011;11492;42.646;23.400;2024-01-06T08:38:23;17.00;;;7.65;;
22650;SDS011;11492;42.646;23.400;2024-01-06T08:40:49;18.65;;;7.53;;
22650;SDS011;11492;42.646;23.400;2024-01-06T08:43:15;20.67;;;9.07;;
22650;SDS011;11492;42.646;23.400;2024-01-06T08:45:41;22.77;;;10.50;;
22650;SDS011;11492;42.646;23.400;2024-01-06T08:48:07;24.35;;;9.77;;
22650;SDS011;11492;42.646;23.400;2024-01-06T08:50:32;32.90;;;12.32;;
22650;SDS011;11492;42.646;23.400;2024-01-06T08:52:58;50.05;;;23.02;;
22650;SDS011;11492;42.646;23.400;2024-01-06T08:55:24;51.72;;;24.20;;
22650;SDS011;11492;42.646;23.400;2024-01-06T08:57:50;61.03;;;29.02;;
22650;SDS011;11492;42.646;23.400;2024-01-06T09:00:15;64.32;;;29.25;;
22650;SDS011;11492;42.646;23.400;2024-01-06T09:02:42;61.22;;;26.35;;
22650;SDS011;11492;42.646;23.400;2024-01-06T09:05:08;65.55;;;28.08;;
22650;SDS011;11492;42.646;23.400;2024-01-06T09:07:33;61.42;;;27.88;;
22650;SDS011;11492;42.646;23.400;2024-01-06T09:09:59;67.63;;;29.75;;
22650;SDS011;11492;42.646;23.400;2024-01-06T09:12:24;67.63;;;29.83;;
22650;SDS011;11492;42.646;23.400;2024-01-06T09:14:50;65.13;;;29.75;;
22650;SDS011;11492;42.646;23.400;2024-01-06T09:17:16;71.80;;;30.65;;
22650;SDS011;11492;42.646;23.400;2024-01-06T09:19:41;66.72;;;29.60;;
22650;SDS011;11492;42.646;23.400;2024-01-06T09:22:07;62.03;;;28.60;;
22650;SDS011;11492;42.646;23.400;2024-01-06T09:24:32;64.50;;;28.55;;
22650;SDS011;11492;42.646;23.400;2024-01-06T09:26:58;66.80;;;27.90;;
22650;SDS011;11492;42.646;23.400;2024-01-06T09:29:24;68.75;;;29.30;;
22650;SDS011;11492;42.646;23.400;2024-01-06T09:31:50;65.47;;;27.50;;
22650;SDS011;11492;42.646;23.400;2024-01-06T09:34:15;61.10;;;27.75;;
22650;SDS011;11492;42.646;23.400;2024-01-06T09:36:41;73.32;;;27.77;;
22650;SDS011;11492;42.646;23.400;2024-01-06T09:39:06;69.82;;;26.30;;
22650;SDS011;11492;42.646;23.400;2024-01-06T09:41:33;69.45;;;28.25;;
22650;SDS011;11492;42.646;23.400;2024-01-06T09:43:59;58.90;;;25.38;;
22650;SDS011;11492;42.646;23.400;2024-01-06T09:46:25;58.58;;;23.83;;
22650;SDS011;11492;42.646;23.400;2024-01-06T09:48:53;56.15;;;23.88;;
22650;SDS011;11492;42.646;23.400;2024-01-06T09:51:20;63.13;;;22.95;;
22650;SDS011;11492;42.646;23.400;2024-01-06T09:53:57;46.28;;;23.25;;
22650;SDS011;11492;42.646;23.400;2024-01-06T09:56:28;50.88;;;23.70;;
22650;SDS011;11492;42.646;23.400;2024-01-06T09:58:55;49.13;;;23.55;;
22650;SDS011;11492;42.646;23.400;2024-01-06T10:01:21;48.65;;;22.30;;
22650;SDS011;11492;42.646;23.400;2024-01-06T10:03:47;48.03;;;23.13;;
22650;SDS011;11492;42.646;23.400;2024-01-06T10:06:16;51.10;;;23.08;;
22650;SDS011;11492;42.646;23.400;2024-01-06T10:08:43;48.70;;;22.23;;
22650;SDS011;11492;42.646;23.400;2024-01-06T10:11:22;50.60;;;22.92;;
22650;SDS011;11492;42.646;23.400;2024-01-06T10:13:48;47.03;;;22.00;;
22650;SDS011;11492;42.646;23.400;2024-01-06T10:16:16;45.20;;;22.77;;
22650;SDS011;11492;42.646;23.400;2024-01-06T10:18:41;50.58;;;23.45;;
22650;SDS011;11492;42.646;23.400;2024-01-06T10:21:09;49.13;;;23.17;;
22650;SDS011;11492;42.646;23.400;2024-01-06T10:23:35;45.10;;;22.75;;
22650;SDS011;11492;42.646;23.400;2024-01-06T10:26:02;45.28;;;21.80;;
22650;SDS011;11492;42.646;23.400;2024-01-06T10:28:28;41.25;;;18.90;;
22650;SDS011;11492;42.646;23.400;2024-01-06T10:30:57;36.63;;;16.67;;
22650;SDS011;11492;42.646;23.400;2024-01-06T10:33:23;37.22;;;16.35;;
22650;SDS011;11492;42.646;23.400;2024-01-06T10:35:50;34.53;;;13.30;;
22650;SDS011;11492;42.646;23.400;2024-01-06T10:38:20;31.15;;;13.35;;
22650;SDS011;11492;42.646;23.400;2024-01-06T10:41:02;33.30;;;13.50;;
22650;SDS011;11492;42.646;23.400;2024-01-06T10:43:35;32.53;;;12.82;;
22650;SDS011;11492;42.646;23.400;2024-01-06T10:46:03;33.03;;;13.38;;
22650;SDS011;11492;42.646;23.400;2024-01-06T10:48:30;35.45;;;13.48;;
22650;SDS011;11492;42.646;23.400;2024-01-06T10:50:58;52.17;;;14.18;;
22650;SDS011;11492;42.646;23.400;2024-01-06T10:53:25;36.85;;;14.05;;
22650;SDS011;11492;42.646;23.400;2024-01-06T10:55:52;37.50;;;14.07;;
22650;SDS011;11492;42.646;23.400;2024-01-06T10:58:18;31.33;;;14.50;;
22650;SDS011;11492;42.646;23.400;2024-01-06T11:00:44;32.88;;;14.73;;
22650;SDS011;11492;42.646;23.400;2024-01-06T11:03:11;39.63;;;14.68;;
22650;SDS011;11492;42.646;23.400;2024-01-06T11:05:40;38.10;;;17.13;;
22650;SDS011;11492;42.646;23.400;2024-01-06T11:08:06;44.75;;;17.33;;
22650;SDS011;11492;42.646;23.400;2024-01-06T11:10:33;47.97;;;16.88;;
22650;SDS011;11492;42.646;23.400;2024-01-06T11:13:11;46.85;;;17.13;;
22650;SDS011;11492;42.646;23.400;2024-01-06T11:18:35;44.35;;;16.23;;
22650;SDS011;11492;42.646;23.400;2024-01-06T11:21:19;44.08;;;17.00;;
22650;SDS011;11492;42.646;23.400;2024-01-06T11:26:41;42.53;;;16.75;;
22650;SDS011;11492;42.646;23.400;2024-01-06T11:29:08;41.33;;;17.05;;
22650;SDS011;11492;42.646;23.400;2024-01-06T11:31:34;38.10;;;16.65;;
22650;SDS011;11492;42.646;23.400;2024-01-06T11:34:15;37.67;;;16.25;;
22650;SDS011;11492;42.646;23.400;2024-01-06T11:36:48;36.40;;;14.63;;
22650;SDS011;11492;42.646;23.400;2024-01-06T11:42:04;32.00;;;14.38;;
22650;SDS011;11492;42.646;23.400;2024-01-06T11:44:33;37.35;;;15.18;;
22650;SDS011;11492;42.646;23.400;2024-01-06T11:47:01;34.67;;;14.05;;
22650;SDS011;11492;42.646;23.400;2024-01-06T11:49:27;30.73;;;13.63;;
22650;SDS011;11492;42.646;23.400;2024-01-06T11:51:53;36.05;;;13.93;;
22650;SDS011;11492;42.646;23.400;2024-01-06T11:54:20;30.60;;;12.98;;
22650;SDS011;11492;42.646;23.400;2024-01-06T11:56:46;32.78;;;12.80;;
22650;SDS011;11492;42.646;23.400;2024-01-06T11:59:12;29.02;;;12.88;;
22650;SDS011;11492;42.646;23.400;2024-01-06T12:01:38;27.23;;;11.32;;
22650;SDS011;11492;42.646;23.400;2024-01-06T12:04:07;27.50;;;12.32;;
22650;SDS011;11492;42.646;23.400;2024-01-06T12:06:33;27.08;;;11.75;;
22650;SDS011;11492;42.646;23.400;2024-01-06T12:11:30;27.38;;;11.38;;
22650;SDS011;11492;42.646;23.400;2024-01-06T12:13:56;25.73;;;11.10;;
22650;SDS011;11492;42.646;23.400;2024-01-06T12:16:22;31.27;;;12.23;;
22650;SDS011;11492;42.646;23.400;2024-01-06T12:18:52;27.15;;;11.82;;
22650;SDS011;11492;42.646;23.400;2024-01-06T12:21:22;24.50;;;12.32;;
22650;SDS011;11492;42.646;23.400;2024-01-06T12:23:48;14.88;;;8.23;;
22650;SDS011;11492;42.646;23.400;2024-01-06T12:26:14;12.45;;;6.53;;
22650;SDS011;11492;42.646;23.400;2024-01-06T12:28:39;13.98;;;6.90;;
22650;SDS011;11492;42.646;23.400;2024-01-06T12:31:09;15.48;;;6.50;;
22650;SDS011;11492;42.646;23.400;2024-01-06T12:33:35;13.65;;;6.57;;
22650;SDS011;11492;42.646;23.400;2024-01-06T12:36:02;18.83;;;6.55;;
22650;SDS011;11492;42.646;23.400;2024-01-06T12:38:32;17.88;;;6.53;;
22650;SDS011;11492;42.646;23.400;2024-01-06T12:40:57;13.38;;;6.32;;
22650;SDS011;11492;42.646;23.400;2024-01-06T12:43:23;13.45;;;6.55;;
22650;SDS011;11492;42.646;23.400;2024-01-06T12:45:48;15.73;;;7.15;;
22650;SDS011;11492;42.646;23.400;2024-01-06T12:48:17;16.20;;;6.80;;
22650;SDS011;11492;42.646;23.400;2024-01-06T12:50:43;16.58;;;6.45;;
22650;SDS011;11492;42.646;23.400;2024-01-06T12:53:09;23.42;;;6.38;;
22650;SDS011;11492;42.646;23.400;2024-01-06T12:55:37;16.08;;;7.05;;
22650;SDS011;11492;42.646;23.400;2024-01-06T12:58:02;19.02;;;7.53;;
22650;SDS011;11492;42.646;23.400;2024-01-06T13:00:29;18.65;;;7.80;;
22650;SDS011;11492;42.646;23.400;2024-01-06T13:02:55;25.55;;;7.80;;
22650;SDS011;11492;42.646;23.400;2024-01-06T13:05:21;20.40;;;8.43;;
22650;SDS011;11492;42.646;23.400;2024-01-06T13:07:48;17.92;;;8.15;;
22650;SDS011;11492;42.646;23.400;2024-01-06T13:10:14;16.90;;;7.28;;
22650;SDS011;11492;42.646;23.400;2024-01-06T13:12:40;20.40;;;7.53;;
22650;SDS011;11492;42.646;23.400;2024-01-06T13:15:06;15.05;;;7.07;;
22650;SDS011;11492;42.646;23.400;2024-01-06T13:17:36;15.30;;;7.95;;
22650;SDS011;11492;42.646;23.400;2024-01-06T13:20:02;19.08;;;7.32;;
22650;SDS011;11492;42.646;23.400;2024-01-06T13:22:28;18.20;;;7.15;;
22650;SDS011;11492;42.646;23.400;2024-01-06T13:24:53;18.65;;;7.43;;
22650;SDS011;11492;42.646;23.400;2024-01-06T13:27:19;14.85;;;6.70;;
22650;SDS011;11492;42.646;23.400;2024-01-06T13:29:44;20.42;;;7.05;;
22650;SDS011;11492;42.646;23.400;2024-01-06T13:32:11;22.67;;;6.65;;
22650;SDS011;11492;42.646;23.400;2024-01-06T13:34:38;16.40;;;7.60;;
22650;SDS011;11492;42.646;23.400;2024-01-06T13:37:04;27.42;;;12.32;;
22650;SDS011;11492;42.646;23.400;2024-01-06T13:39:30;18.30;;;7.82;;
22650;SDS011;11492;42.646;23.400;2024-01-06T13:41:56;19.60;;;7.20;;
22650;SDS011;11492;42.646;23.400;2024-01-06T13:44:21;11.82;;;6.75;;
22650;SDS011;11492;42.646;23.400;2024-01-06T13:46:47;19.80;;;9.52;;
22650;SDS011;11492;42.646;23.400;2024-01-06T13:49:16;13.07;;;7.18;;
22650;SDS011;11492;42.646;23.400;2024-01-06T13:51:42;18.38;;;10.15;;
22650;SDS011;11492;42.646;23.400;2024-01-06T13:54:09;21.27;;;7.28;;
22650;SDS011;11492;42.646;23.400;2024-01-06T13:56:35;14.15;;;6.90;;
22650;SDS011;11492;42.646;23.400;2024-01-06T13:59:02;14.55;;;5.55;;
22650;SDS011;11492;42.646;23.400;2024-01-06T14:01:29;14.07;;;6.78;;
22650;SDS011;11492;42.646;23.400;2024-01-06T14:03:55;20.92;;;8.02;;
22650;SDS011;11492;42.646;23.400;2024-01-06T14:06:31;19.33;;;7.47;;
22650;SDS011;11492;42.646;23.400;2024-01-06T14:08:59;18.90;;;7.03;;
22650;SDS011;11492;42.646;23.400;2024-01-06T14:11:25;14.35;;;6.00;;
22650;SDS011;11492;42.646;23.400;2024-01-06T14:13:55;13.93;;;6.65;;
22650;SDS011;11492;42.646;23.400;2024-01-06T14:16:22;27.08;;;9.15;;
22650;SDS011;11492;42.646;23.400;2024-01-06T14:18:48;17.92;;;7.53;;
22650;SDS011;11492;42.646;23.400;2024-01-06T14:21:13;25.83;;;12.55;;
22650;SDS011;11492;42.646;23.400;2024-01-06T14:23:43;18.63;;;8.50;;